Time;durP1;ratioP1;P1;durP2;ratioP2;P2;SDS_P1;SDS_P2;PMS_P1;PMS_P2;Temp;Humidity;BMP_temperature;BMP_pressure;BME280_temperature;BME280_humidity;BME280_pressure;Samples;Min_cycle;Max_cycle;Signal;HPM_P1;HPM_P2
2022/09/16 00:01:13;;;;;;;7.10;0.90;;;11.10;99.90;;;;;;5095319;28;20039;-60
2022/09/16 00:03:39;;;;;;;8.80;1.10;;;11.10;99.90;;;;;;5095681;27;20125;-60
2022/09/16 00:06:05;;;;;;;5.32;0.63;;;11.00;99.90;;;;;;5095043;27;20135;-60
2022/09/16 00:08:31;;;;;;;5.10;0.70;;;11.20;99.90;;;;;;5094744;27;20127;-60
2022/09/16 00:11:01;;;;;;;6.70;0.88;;;11.10;99.90;;;;;;5094569;27;20073;-59
2022/09/16 00:13:28;;;;;;;7.43;0.95;;;9.20;99.90;;;;;;5095753;27;20124;-60
2022/09/16 00:15:53;;;;;;;4.93;1.02;;;11.20;99.90;;;;;;5094012;27;20067;-61
2022/09/16 00:18:20;;;;;;;6.38;0.90;;;11.40;99.90;;;;;;5094641;27;20066;-61
2022/09/16 00:20:48;;;;;;;9.00;0.90;;;11.70;99.90;;;;;;5095836;28;20035;-61
2022/09/16 00:23:14;;;;;;;3.35;0.75;;;13.30;99.90;;;;;;5097155;27;20036;-61
2022/09/16 00:25:40;;;;;;;6.93;1.02;;;11.60;99.90;;;;;;5095301;27;20039;-61
2022/09/16 00:28:06;;;;;;;4.47;0.95;;;12.40;99.90;;;;;;5095785;27;20191;-61
2022/09/16 00:30:32;;;;;;;6.53;0.65;;;10.90;99.90;;;;;;5096392;27;20436;-61
2022/09/16 00:32:57;;;;;;;5.07;0.80;;;12.60;99.90;;;;;;5095168;28;20264;-62
2022/09/16 00:35:23;;;;;;;12.57;1.83;;;10.90;99.90;;;;;;5095070;27;20079;-61
2022/09/16 00:37:49;;;;;;;5.50;1.00;;;11.10;99.90;;;;;;5094926;27;20697;-61
2022/09/16 00:40:15;;;;;;;5.35;0.85;;;13.10;99.90;;;;;;5095702;27;20036;-61
2022/09/16 00:42:40;;;;;;;4.63;0.88;;;10.80;99.90;;;;;;5094453;28;20167;-61
2022/09/16 00:45:19;;;;;;;5.10;0.90;;;10.90;99.90;;;;;;5094325;27;20038;-60
2022/09/16 00:47:53;;;;;;;9.23;1.15;;;10.90;99.90;;;;;;5092372;27;20685;-61
2022/09/16 00:50:35;;;;;;;4.63;0.95;;;11.80;99.90;;;;;;5095893;27;20125;-60
2022/09/16 00:53:01;;;;;;;9.65;1.00;;;10.90;99.90;;;;;;5094226;27;20054;-60
2022/09/16 00:55:32;;;;;;;7.68;1.08;;;11.00;99.90;;;;;;5094824;27;20412;-60
2022/09/16 00:58:05;;;;;;;7.07;1.25;;;11.20;99.90;;;;;;5095611;27;20071;-59
2022/09/16 01:00:31;;;;;;;4.15;0.88;;;11.00;99.90;;;;;;5094592;28;20051;-59
2022/09/16 01:02:57;;;;;;;7.20;1.13;;;13.10;99.90;;;;;;5094498;27;20418;-60
2022/09/16 01:05:25;;;;;;;3.90;1.08;;;11.00;99.90;;;;;;5094917;27;20040;-61
2022/09/16 01:07:53;;;;;;;8.65;1.10;;;11.10;99.90;;;;;;5094771;27;20626;-61
2022/09/16 01:10:22;;;;;;;6.13;1.23;;;11.00;99.90;;;;;;5094194;27;20043;-60
2022/09/16 01:12:57;;;;;;;6.22;1.08;;;11.00;99.90;;;;;;5093825;27;20062;-60
2022/09/16 01:15:50;;;;;;;4.43;0.80;;;10.90;99.90;;;;;;5094117;28;20427;-60
2022/09/16 01:18:45;;;;;;;9.43;1.00;;;10.90;99.90;;;;;;5094233;28;20044;-60
2022/09/16 01:21:17;;;;;;;5.65;0.93;;;10.80;99.90;;;;;;5094952;27;20140;-61
2022/09/16 01:23:58;;;;;;;5.53;0.98;;;10.80;99.90;;;;;;5094280;27;20859;-60
2022/09/16 01:26:54;;;;;;;6.22;0.93;;;10.70;99.90;;;;;;5093567;27;20534;-60
2022/09/16 01:29:57;;;;;;;4.90;1.00;;;10.70;99.90;;;;;;5094228;28;20124;-60
2022/09/16 01:32:54;;;;;;;6.53;0.90;;;10.70;99.90;;;;;;5094143;27;20044;-59
2022/09/16 01:35:51;;;;;;;8.55;1.40;;;10.70;99.90;;;;;;5094772;27;20512;-60
2022/09/16 01:38:39;;;;;;;6.57;1.25;;;10.50;99.90;;;;;;5094065;27;20036;-60
2022/09/16 01:41:20;;;;;;;4.25;1.00;;;10.80;99.90;;;;;;5092155;27;20039;-60
2022/09/16 01:43:56;;;;;;;9.88;1.48;;;10.80;99.90;;;;;;5094369;28;20171;-61
2022/09/16 01:46:48;;;;;;;6.18;1.40;;;10.40;99.90;;;;;;5093055;28;20040;-59
2022/09/16 01:49:25;;;;;;;5.97;1.30;;;10.40;99.90;;;;;;5093011;27;20100;-60
2022/09/16 01:51:57;;;;;;;12.70;2.08;;;10.50;99.90;;;;;;5093425;27;20047;-62
2022/09/16 01:54:32;;;;;;;6.37;1.40;;;10.50;99.90;;;;;;5094196;27;20062;-60
2022/09/16 01:57:08;;;;;;;4.95;1.17;;;10.60;99.90;;;;;;5093472;27;20062;-61
2022/09/16 01:59:43;;;;;;;7.28;1.48;;;10.40;99.90;;;;;;5093243;27;20035;-60
2022/09/16 02:02:24;;;;;;;6.03;1.40;;;10.40;99.90;;;;;;5092897;27;20058;-60
2022/09/16 02:04:55;;;;;;;5.75;1.52;;;10.40;99.90;;;;;;5092801;27;20047;-61
2022/09/16 02:07:26;;;;;;;7.22;1.80;;;10.50;99.90;;;;;;5093762;27;20050;-61
2022/09/16 02:10:03;;;;;;;6.07;1.30;;;10.20;99.90;;;;;;5094494;27;20125;-60
2022/09/16 02:12:33;;;;;;;8.93;1.70;;;11.70;99.90;;;;;;5091379;28;20036;-60
2022/09/16 02:15:06;;;;;;;8.73;1.63;;;10.30;99.90;;;;;;5092694;27;20503;-60
2022/09/16 02:17:37;;;;;;;7.93;1.40;;;10.40;99.90;;;;;;5091287;27;20464;-60
2022/09/16 02:20:16;;;;;;;10.43;1.08;;;10.50;99.90;;;;;;5092402;27;20040;-60
2022/09/16 02:22:49;;;;;;;6.25;1.20;;;12.30;99.90;;;;;;5093880;27;20375;-60
2022/09/16 02:25:18;;;;;;;6.88;1.20;;;10.80;99.90;;;;;;5093742;28;20467;-60
2022/09/16 02:27:47;;;;;;;8.40;1.30;;;10.70;99.90;;;;;;5092488;28;20059;-60
2022/09/16 02:30:19;;;;;;;7.65;1.00;;;10.90;99.90;;;;;;5092137;28;20036;-60
2022/09/16 02:32:46;;;;;;;;;;;10.90;99.90;;;;;;5092580;28;20047;-59
2022/09/16 02:35:18;;;;;;;6.40;0.98;;;12.30;99.90;;;;;;5091624;27;20664;-59
2022/09/16 02:37:46;;;;;;;;;;;10.80;99.90;;;;;;5092986;28;20036;-59
2022/09/16 02:40:21;;;;;;;10.00;1.55;;;10.80;99.90;;;;;;5092858;28;19930;-59
2022/09/16 02:42:48;;;;;;;6.22;1.08;;;10.80;99.90;;;;;;5092347;27;20485;-60
2022/09/16 02:45:14;;;;;;;8.85;0.93;;;10.70;99.90;;;;;;5092380;28;20043;-60
2022/09/16 02:48:02;;;;;;;8.52;1.17;;;10.90;99.90;;;;;;5093347;28;20058;-59
2022/09/16 02:50:54;;;;;;;5.90;0.90;;;11.80;99.90;;;;;;5093737;28;20093;-60
2022/09/16 02:53:44;;;;;;;7.15;1.15;;;10.80;99.90;;;;;;5090108;28;21192;-60
2022/09/16 02:56:20;;;;;;;11.48;1.30;;;10.60;99.90;;;;;;5093147;28;20044;-60
2022/09/16 02:58:45;;;;;;;7.78;1.10;;;10.80;99.90;;;;;;5092325;27;20071;-60
2022/09/16 03:01:12;;;;;;;8.93;1.40;;;10.50;99.90;;;;;;5092324;28;20146;-60
2022/09/16 03:03:39;;;;;;;6.45;1.20;;;10.80;99.90;;;;;;5093292;28;20127;-60
2022/09/16 03:06:05;;;;;;;9.80;1.20;;;10.60;99.90;;;;;;5092677;27;20048;-60
2022/09/16 03:08:32;;;;;;;9.65;1.23;;;12.20;99.90;;;;;;5093064;28;20132;-59
2022/09/16 03:11:27;;;;;;;5.95;1.02;;;10.60;99.90;;;;;;5092371;28;20511;-60
2022/09/16 03:14:05;;;;;;;11.90;2.45;;;10.50;99.90;;;;;;5074375;28;20436;-59
2022/09/16 03:17:15;;;;;;;4.43;1.02;;;11.50;99.90;;;;;;5092788;28;20858;-60
2022/09/16 03:20:01;;;;;;;9.00;1.20;;;10.50;99.90;;;;;;5075884;28;20411;-59
2022/09/16 03:22:48;;;;;;;9.70;1.05;;;10.50;99.90;;;;;;5091503;28;20043;-60
2022/09/16 03:25:44;;;;;;;7.15;1.25;;;10.30;99.90;;;;;;5096774;27;20514;-60
2022/09/16 03:28:15;;;;;;;10.15;1.20;;;10.40;99.90;;;;;;5096681;27;20071;-60
2022/09/16 03:30:58;;;;;;;7.70;1.20;;;10.30;99.90;;;;;;5097372;27;20043;-60
2022/09/16 03:33:34;;;;;;;9.43;1.92;;;10.30;99.90;;;;;;5095596;27;20047;-60
2022/09/16 03:36:04;;;;;;;11.50;2.67;;;10.40;99.90;;;;;;5095806;27;20067;-60
2022/09/16 03:38:33;;;;;;;10.00;1.60;;;10.30;99.90;;;;;;5078492;28;20526;-61
2022/09/16 03:41:02;;;;;;;10.93;1.20;;;12.10;99.90;;;;;;5096591;27;20039;-60
2022/09/16 03:43:27;;;;;;;11.20;1.30;;;10.40;99.90;;;;;;5096683;27;20725;-61
2022/09/16 03:45:53;;;;;;;7.75;1.33;;;10.40;99.90;;;;;;5095010;28;20060;-61
2022/09/16 03:48:19;;;;;;;9.20;1.38;;;11.30;99.90;;;;;;5096030;27;20036;-61
2022/09/16 03:50:45;;;;;;;7.28;1.42;;;10.20;99.90;;;;;;5096761;27;20032;-61
2022/09/16 03:53:10;;;;;;;16.58;3.70;;;11.20;99.90;;;;;;5095697;27;20059;-61
2022/09/16 03:55:36;;;;;;;11.65;1.50;;;10.20;99.90;;;;;;5095712;27;20047;-61
2022/09/16 03:58:02;;;;;;;8.93;1.52;;;10.40;99.90;;;;;;5097250;27;20578;-61
2022/09/16 04:00:28;;;;;;;11.32;1.45;;;10.30;99.90;;;;;;5094857;27;20729;-61
2022/09/16 04:02:54;;;;;;;11.73;1.40;;;11.40;99.90;;;;;;5097457;27;20096;-61
2022/09/16 04:05:20;;;;;;;9.10;1.40;;;10.60;99.90;;;;;;5096719;27;20043;-62
2022/09/16 04:07:48;;;;;;;9.35;1.33;;;10.40;99.90;;;;;;5097259;27;20035;-62
2022/09/16 04:10:14;;;;;;;7.28;1.10;;;11.30;99.90;;;;;;5096553;27;20032;-62
2022/09/16 04:12:40;;;;;;;13.95;2.25;;;10.30;99.90;;;;;;5097196;27;20039;-61
2022/09/16 04:15:06;;;;;;;12.63;1.38;;;12.30;99.90;;;;;;5094686;27;20118;-61
2022/09/16 04:17:32;;;;;;;10.77;1.10;;;10.40;99.90;;;;;;5095550;27;20038;-62
2022/09/16 04:19:58;;;;;;;9.00;1.15;;;12.00;99.90;;;;;;5095247;27;20035;-62
2022/09/16 04:22:27;;;;;;;9.02;1.23;;;10.30;99.90;;;;;;5095459;28;20692;-63
2022/09/16 04:24:52;;;;;;;11.02;1.40;;;10.20;99.90;;;;;;5096716;28;20044;-62
2022/09/16 04:27:18;;;;;;;12.05;1.77;;;10.80;99.90;;;;;;5094922;27;20131;-61
2022/09/16 04:29:44;;;;;;;8.80;1.52;;;11.50;99.90;;;;;;5094702;27;20039;-61
2022/09/16 04:32:09;;;;;;;8.93;1.27;;;10.10;99.90;;;;;;5094771;27;20047;-62
2022/09/16 04:34:35;;;;;;;13.02;1.58;;;10.00;99.90;;;;;;5094897;27;20039;-61
2022/09/16 04:37:01;;;;;;;15.20;1.77;;;10.80;99.90;;;;;;5095630;27;20028;-62
2022/09/16 04:39:27;;;;;;;14.43;1.60;;;10.80;99.90;;;;;;5094418;28;20829;-63
2022/09/16 04:41:52;;;;;;;11.27;1.50;;;12.10;99.90;;;;;;5094456;27;20467;-62
2022/09/16 04:44:18;;;;;;;16.20;1.85;;;10.90;99.90;;;;;;5095203;27;20080;-62
2022/09/16 04:46:44;;;;;;;10.15;1.77;;;10.30;99.90;;;;;;5093956;28;20063;-62
2022/09/16 04:49:11;;;;;;;12.55;1.80;;;10.30;99.90;;;;;;5094566;27;20047;-62
2022/09/16 04:51:37;;;;;;;12.88;1.50;;;10.10;99.90;;;;;;5094659;27;20035;-62
2022/09/16 04:54:03;;;;;;;10.80;1.40;;;10.20;99.90;;;;;;5095769;27;20055;-62
2022/09/16 04:56:31;;;;;;;12.10;1.77;;;10.30;99.90;;;;;;5095580;28;20050;-63
2022/09/16 04:59:01;;;;;;;12.65;2.10;;;10.00;99.90;;;;;;5094948;27;20063;-62
2022/09/16 05:01:30;;;;;;;9.38;1.58;;;11.10;99.90;;;;;;5094472;28;20550;-63
2022/09/16 05:03:59;;;;;;;12.35;1.73;;;10.10;99.90;;;;;;5095333;27;20091;-62
2022/09/16 05:06:27;;;;;;;12.80;1.98;;;10.90;99.90;;;;;;5094423;27;20066;-63
2022/09/16 05:08:54;;;;;;;12.93;1.60;;;10.30;99.90;;;;;;5094816;28;20602;-63
2022/09/16 05:11:25;;;;;;;9.32;1.50;;;10.00;99.90;;;;;;5094759;28;20496;-63
2022/09/16 05:13:51;;;;;;;11.18;1.92;;;10.00;99.90;;;;;;5095632;27;20039;-63
2022/09/16 05:16:22;;;;;;;17.63;1.80;;;10.70;99.90;;;;;;5092820;27;20031;-63
2022/09/16 05:18:49;;;;;;;22.05;2.10;;;10.30;99.90;;;;;;5093954;27;20055;-63
2022/09/16 05:21:18;;;;;;;10.63;2.05;;;10.30;99.90;;;;;;5093160;27;20039;-62
2022/09/16 05:23:45;;;;;;;14.85;2.38;;;10.30;99.90;;;;;;5093342;27;20123;-62
2022/09/16 05:26:16;;;;;;;11.00;1.50;;;12.10;99.90;;;;;;5093791;27;21509;-63
2022/09/16 05:28:42;;;;;;;15.88;2.92;;;10.20;99.90;;;;;;5094622;27;20589;-63
2022/09/16 05:31:15;;;;;;;12.75;1.55;;;10.40;99.90;;;;;;5094501;28;20047;-63
2022/09/16 05:33:43;;;;;;;12.60;2.20;;;10.20;99.90;;;;;;5093978;28;20047;-63
2022/09/16 05:36:15;;;;;;;11.82;1.67;;;10.60;99.90;;;;;;5092506;28;20075;-63
2022/09/16 05:38:41;;;;;;;10.45;1.55;;;10.60;99.90;;;;;;5094228;27;20047;-62
2022/09/16 05:41:07;;;;;;;16.40;1.60;;;10.70;99.90;;;;;;5092729;28;20039;-62
2022/09/16 05:43:33;;;;;;;10.15;1.33;;;10.90;98.80;;;;;;5091345;27;20042;-63
2022/09/16 05:46:00;;;;;;;11.80;1.52;;;10.80;99.00;;;;;;5093337;27;20126;-63
2022/09/16 05:48:26;;;;;;;13.23;1.38;;;11.00;97.90;;;;;;5092805;27;20185;-63
2022/09/16 05:50:53;;;;;;;10.45;1.40;;;12.20;99.50;;;;;;5092581;28;20486;-62
2022/09/16 05:53:20;;;;;;;15.80;2.35;;;12.30;99.80;;;;;;5093964;27;20499;-62
2022/09/16 05:56:03;;;;;;;9.30;1.40;;;10.80;99.50;;;;;;5092870;27;20911;-63
2022/09/16 05:58:31;;;;;;;14.80;1.88;;;13.30;99.90;;;;;;5093530;27;20043;-63
2022/09/16 06:01:05;;;;;;;11.77;1.60;;;11.70;99.80;;;;;;5092029;28;20043;-63
2022/09/16 06:03:33;;;;;;;11.73;1.95;;;11.10;99.10;;;;;;5093004;27;20416;-63
2022/09/16 06:06:04;;;;;;;12.82;1.77;;;10.90;99.60;;;;;;5092660;27;20035;-62
2022/09/16 06:08:33;;;;;;;14.18;1.60;;;11.00;99.40;;;;;;5091672;28;20039;-62
2022/09/16 06:11:07;;;;;;;7.25;1.52;;;11.90;97.70;;;;;;5092950;28;20043;-64
2022/09/16 06:13:33;;;;;;;7.07;1.60;;;12.40;98.40;;;;;;5093202;27;20399;-65
2022/09/16 06:16:00;;;;;;;10.27;1.90;;;11.20;99.20;;;;;;5091724;28;20380;-63
2022/09/16 06:18:28;;;;;;;13.38;1.65;;;11.80;99.20;;;;;;5094012;28;20055;-63
2022/09/16 06:20:54;;;;;;;8.07;1.30;;;12.60;93.90;;;;;;5093146;27;20035;-63
2022/09/16 06:23:20;;;;;;;7.85;1.40;;;13.30;71.50;;;;;;5093078;27;20046;-63
2022/09/16 06:25:46;;;;;;;11.63;1.60;;;14.60;53.90;;;;;;5093029;28;20985;-63
2022/09/16 06:28:13;;;;;;;8.35;1.75;;;14.70;62.50;;;;;;5092006;28;20085;-63
2022/09/16 06:30:39;;;;;;;11.85;2.25;;;15.40;99.90;;;;;;5091926;27;20070;-63
2022/09/16 06:33:04;;;;;;;7.63;1.55;;;15.90;99.90;;;;;;5091854;27;20139;-62
2022/09/16 06:35:30;;;;;;;14.55;2.10;;;16.10;99.90;;;;;;5093155;27;20039;-63
2022/09/16 06:37:56;;;;;;;13.48;1.98;;;15.80;99.90;;;;;;5091523;28;20073;-63
2022/09/16 06:40:22;;;;;;;8.63;1.30;;;15.30;99.90;;;;;;5091406;28;20038;-63
2022/09/16 06:42:48;;;;;;;10.80;2.72;;;14.70;99.90;;;;;;5092971;27;20513;-63
2022/09/16 06:45:13;;;;;;;12.18;1.77;;;14.30;99.90;;;;;;5092302;28;20055;-63
2022/09/16 06:47:39;;;;;;;8.57;1.50;;;14.10;99.90;;;;;;5092608;28;20050;-63
2022/09/16 06:50:05;;;;;;;13.40;1.67;;;13.60;99.90;;;;;;5092270;28;20065;-63
2022/09/16 06:52:31;;;;;;;16.40;2.00;;;13.50;99.90;;;;;;5092586;28;20056;-63
2022/09/16 06:54:57;;;;;;;12.75;1.83;;;14.10;99.90;;;;;;5090780;28;20634;-63
2022/09/16 06:57:23;;;;;;;9.13;1.40;;;14.40;99.90;;;;;;5093339;28;20038;-63
2022/09/16 06:59:49;;;;;;;10.68;1.67;;;14.30;99.90;;;;;;5097615;27;20043;-63
2022/09/16 07:02:16;;;;;;;9.25;1.70;;;14.50;99.90;;;;;;5097210;27;20412;-63
2022/09/16 07:04:41;;;;;;;10.63;1.67;;;14.70;99.90;;;;;;5097151;27;20035;-63
2022/09/16 07:07:08;;;;;;;12.60;1.80;;;16.50;99.90;;;;;;5096079;28;20190;-63
2022/09/16 07:09:33;;;;;;;12.73;1.92;;;15.30;99.90;;;;;;5097453;27;20043;-63
2022/09/16 07:12:00;;;;;;;10.10;1.50;;;15.40;99.90;;;;;;5097680;27;20035;-63
2022/09/16 07:14:27;;;;;;;10.40;1.80;;;15.80;99.90;;;;;;5096727;27;20040;-62
2022/09/16 07:16:53;;;;;;;12.52;2.08;;;16.70;99.90;;;;;;5096856;27;20052;-63
2022/09/16 07:19:19;;;;;;;11.32;2.35;;;17.40;99.90;;;;;;5097436;27;20186;-63
2022/09/16 07:21:45;;;;;;;13.02;1.63;;;17.80;99.90;;;;;;5096882;27;20039;-63
2022/09/16 07:24:12;;;;;;;10.20;1.95;;;18.00;99.90;;;;;;5097086;27;20091;-62
2022/09/16 07:26:39;;;;;;;13.93;2.53;;;19.70;99.90;;;;;;5098048;27;20059;-62
2022/09/16 07:29:08;;;;;;;7.15;1.45;;;17.50;99.90;;;;;;5098354;27;20078;-63
2022/09/16 07:31:36;;;;;;;12.27;2.22;;;17.20;99.90;;;;;;5098003;27;20407;-62
2022/09/16 07:34:03;;;;;;;12.57;2.53;;;17.60;99.90;;;;;;5097824;27;20039;-63
2022/09/16 07:36:37;;;;;;;13.55;2.35;;;17.70;99.90;;;;;;5097957;27;20401;-62
2022/09/16 07:39:03;;;;;;;7.70;1.55;;;17.60;99.90;;;;;;5097083;27;20031;-62
2022/09/16 07:41:32;;;;;;;11.63;2.65;;;17.50;99.90;;;;;;5096171;28;20125;-62
2022/09/16 07:43:59;;;;;;;11.77;1.92;;;17.10;99.90;;;;;;5096724;27;20040;-63
2022/09/16 07:46:29;;;;;;;10.25;1.83;;;17.30;99.90;;;;;;5095513;27;20398;-62
2022/09/16 07:48:56;;;;;;;12.07;1.77;;;17.00;99.90;;;;;;5096439;27;20116;-63
2022/09/16 07:51:24;;;;;;;11.88;2.03;;;17.00;99.90;;;;;;5096700;27;20056;-62
2022/09/16 07:53:54;;;;;;;10.55;1.88;;;16.50;99.90;;;;;;5096173;27;20048;-62
2022/09/16 07:56:24;;;;;;;12.20;2.55;;;16.00;99.90;;;;;;5096931;27;20046;-62
2022/09/16 07:58:51;;;;;;;13.27;2.00;;;15.50;99.90;;;;;;5095555;28;20050;-62
2022/09/16 08:01:17;;;;;;;15.13;1.88;;;15.10;99.90;;;;;;5095371;27;20404;-62
2022/09/16 08:03:44;;;;;;;12.57;2.33;;;15.00;99.90;;;;;;5095308;27;20043;-62
2022/09/16 08:06:19;;;;;;;12.27;2.05;;;15.10;99.90;;;;;;5096205;27;20044;-63
2022/09/16 08:08:45;;;;;;;13.63;2.30;;;15.20;99.90;;;;;;5094037;28;20538;-62
2022/09/16 08:11:13;;;;;;;14.40;2.30;;;15.10;99.90;;;;;;5095863;28;20058;-62
2022/09/16 08:13:40;;;;;;;16.30;2.50;;;15.20;99.90;;;;;;5096940;27;20196;-63
2022/09/16 08:16:09;;;;;;;13.95;2.33;;;15.50;99.90;;;;;;5095335;27;20408;-63
2022/09/16 08:18:35;;;;;;;14.35;2.33;;;15.20;99.90;;;;;;5094854;28;20128;-63
2022/09/16 08:21:06;;;;;;;13.23;2.72;;;15.30;99.90;;;;;;5095282;27;20568;-62
2022/09/16 08:23:34;;;;;;;11.95;2.25;;;15.40;99.90;;;;;;5095044;27;20036;-63
2022/09/16 08:26:00;;;;;;;14.48;2.17;;;15.20;99.90;;;;;;5097081;27;20051;-63
2022/09/16 08:28:27;;;;;;;15.55;2.05;;;15.00;99.90;;;;;;5095335;27;20096;-63
2022/09/16 08:30:53;;;;;;;12.82;2.55;;;15.30;99.90;;;;;;5095125;27;20039;-62
2022/09/16 08:33:22;;;;;;;16.15;3.20;;;15.20;99.90;;;;;;5095928;27;20050;-63
2022/09/16 08:36:00;;;;;;;13.45;2.33;;;15.40;99.90;;;;;;5095563;27;20044;-63
2022/09/16 08:38:27;;;;;;;14.63;3.08;;;15.30;99.90;;;;;;5096074;27;20528;-63
2022/09/16 08:41:16;;;;;;;9.82;1.85;;;15.30;99.90;;;;;;5095304;27;20090;-64
2022/09/16 08:43:54;;;;;;;8.35;1.48;;;15.10;99.90;;;;;;5094844;27;20352;-63
2022/09/16 08:46:45;;;;;;;9.00;1.48;;;15.30;99.90;;;;;;5095599;27;20036;-63
2022/09/16 08:49:28;;;;;;;11.45;1.30;;;15.30;99.90;;;;;;5095672;27;20035;-62
2022/09/16 08:51:55;;;;;;;13.32;1.70;;;15.30;99.90;;;;;;5095046;27;20725;-63
2022/09/16 08:54:49;;;;;;;9.98;1.60;;;15.50;99.90;;;;;;5095342;27;20047;-63
2022/09/16 08:57:21;;;;;;;9.65;1.58;;;15.40;99.90;;;;;;5096517;27;20047;-63
2022/09/16 09:00:14;;;;;;;10.90;1.73;;;16.10;99.90;;;;;;5096121;27;20480;-62
2022/09/16 09:02:57;;;;;;;14.25;2.33;;;15.60;99.90;;;;;;5093879;27;20536;-63
2022/09/16 09:05:35;;;;;;;14.43;2.10;;;15.30;99.90;;;;;;5094034;27;20039;-63
2022/09/16 09:08:14;;;;;;;11.00;2.10;;;16.40;99.90;;;;;;5095214;27;20046;-62
2022/09/16 09:10:51;;;;;;;8.23;1.40;;;15.30;99.90;;;;;;5094258;28;20046;-62
2022/09/16 09:13:40;;;;;;;13.18;2.97;;;15.40;99.90;;;;;;5094491;27;20583;-63
2022/09/16 09:16:21;;;;;;;13.48;1.92;;;15.40;99.90;;;;;;5095299;27;20396;-62
2022/09/16 09:19:10;;;;;;;11.43;2.20;;;15.80;99.90;;;;;;5093808;27;20403;-62
2022/09/16 09:22:03;;;;;;;9.98;1.40;;;15.50;99.90;;;;;;5093529;28;20054;-63
2022/09/16 09:25:07;;;;;;;9.05;1.65;;;15.90;99.90;;;;;;5092259;28;20063;-62
2022/09/16 09:27:43;;;;;;;9.13;1.48;;;16.00;99.90;;;;;;5093808;28;20047;-62
2022/09/16 09:30:15;;;;;;;10.55;1.65;;;16.40;99.90;;;;;;5090819;28;20071;-62
2022/09/16 09:33:03;;;;;;;12.05;1.88;;;16.20;99.90;;;;;;5090820;28;20061;-62
2022/09/16 09:35:46;;;;;;;12.65;1.88;;;15.90;99.90;;;;;;5091995;27;20400;-62
2022/09/16 09:38:43;;;;;;;12.63;1.70;;;15.80;99.90;;;;;;5093112;27;20443;-62
2022/09/16 09:41:31;;;;;;;13.23;1.70;;;16.00;99.90;;;;;;5074261;27;20082;-64
2022/09/16 09:44:04;;;;;;;14.32;1.60;;;16.10;99.90;;;;;;5091859;27;20384;-62
2022/09/16 09:46:36;;;;;;;11.50;2.33;;;16.20;99.90;;;;;;5092880;27;20134;-62
2022/09/16 09:49:26;;;;;;;10.15;1.77;;;16.20;99.90;;;;;;5093431;27;20047;-62
2022/09/16 09:52:26;;;;;;;12.45;1.98;;;16.20;99.90;;;;;;5092645;27;20526;-62
2022/09/16 09:54:52;;;;;;;11.90;1.50;;;16.00;99.90;;;;;;5084888;27;20351;-61
2022/09/16 09:57:45;;;;;;;11.32;2.05;;;16.00;99.90;;;;;;5093700;27;20124;-62
2022/09/16 10:00:13;;;;;;;11.90;1.95;;;16.10;99.90;;;;;;5092943;27;20643;-61
2022/09/16 10:02:41;;;;;;;11.05;1.52;;;16.20;99.90;;;;;;5093532;27;20047;-61
2022/09/16 10:05:22;;;;;;;16.42;1.90;;;16.00;99.90;;;;;;5092277;27;20886;-62
2022/09/16 10:07:51;;;;;;;12.02;2.22;;;15.70;99.90;;;;;;5092139;27;20120;-61
2022/09/16 10:10:21;;;;;;;16.08;2.20;;;15.50;99.90;;;;;;5092188;28;20088;-62
2022/09/16 10:12:46;;;;;;;13.48;1.70;;;15.10;99.90;;;;;;5092000;28;20419;-61
2022/09/16 10:15:21;;;;;;;11.68;1.50;;;15.20;99.90;;;;;;5093132;28;20027;-61
2022/09/16 10:17:49;;;;;;;7.10;1.33;;;15.50;99.90;;;;;;5092660;28;20061;-61
2022/09/16 10:20:34;;;;;;;15.25;1.65;;;15.90;99.90;;;;;;5092306;27;20043;-62
2022/09/16 10:23:10;;;;;;;9.07;1.75;;;16.20;99.90;;;;;;5094476;27;20062;-62
2022/09/16 10:25:36;;;;;;;9.45;1.83;;;16.40;99.90;;;;;;5093682;28;20036;-61
2022/09/16 10:28:05;;;;;;;14.20;1.98;;;16.50;99.90;;;;;;5093355;28;20468;-61
2022/09/16 10:30:43;;;;;;;11.57;1.92;;;16.70;99.90;;;;;;5091714;27;20059;-61
2022/09/16 10:33:19;;;;;;;8.63;1.52;;;17.00;99.90;;;;;;5086856;28;20519;-60
2022/09/16 10:35:55;;;;;;;13.55;1.35;;;17.00;99.90;;;;;;5091619;28;20222;-61
2022/09/16 10:38:23;;;;;;;11.50;2.05;;;16.80;99.90;;;;;;5092665;28;20172;-62
2022/09/16 10:41:18;;;;;;;10.10;2.03;;;16.30;99.90;;;;;;5091944;28;20086;-61
2022/09/16 10:43:51;;;;;;;12.02;2.10;;;15.90;99.90;;;;;;5089270;28;20083;-62
2022/09/16 10:46:17;;;;;;;8.98;1.60;;;15.70;99.90;;;;;;5091361;28;20127;-62
2022/09/16 10:48:44;;;;;;;9.82;2.20;;;15.80;99.90;;;;;;5092379;28;20092;-62
2022/09/16 10:51:25;;;;;;;11.07;1.63;;;16.30;99.90;;;;;;5091147;28;20036;-62
2022/09/16 10:53:55;;;;;;;8.60;1.10;;;16.60;99.90;;;;;;5091640;28;20056;-61
2022/09/16 10:56:23;;;;;;;9.48;1.77;;;17.00;99.90;;;;;;5093437;28;20047;-62
2022/09/16 10:59:01;;;;;;;7.90;1.60;;;17.00;99.90;;;;;;5091456;28;20043;-62
2022/09/16 11:01:52;;;;;;;8.48;1.70;;;17.40;99.90;;;;;;5091492;28;20036;-62
2022/09/16 11:04:53;;;;;;;12.30;1.60;;;17.30;99.90;;;;;;5091886;28;20456;-61
2022/09/16 11:07:18;;;;;;;8.13;1.70;;;17.40;99.90;;;;;;5092332;28;20043;-62
2022/09/16 11:10:03;;;;;;;10.38;2.13;;;17.40;99.90;;;;;;5092629;28;20051;-62
2022/09/16 11:12:45;;;;;;;14.32;1.83;;;17.00;99.90;;;;;;5092752;28;20044;-62
2022/09/16 11:15:35;;;;;;;10.00;1.70;;;16.80;99.90;;;;;;5093038;28;20039;-62
2022/09/16 11:18:13;;;;;;;10.80;1.65;;;16.10;99.90;;;;;;5093291;28;20396;-61
2022/09/16 11:20:58;;;;;;;12.20;1.38;;;16.40;99.90;;;;;;5092831;28;20079;-62
2022/09/16 11:23:45;;;;;;;10.65;1.52;;;16.70;99.90;;;;;;5091776;28;20044;-62
2022/09/16 11:26:23;;;;;;;9.13;1.48;;;17.00;99.90;;;;;;5093555;28;20044;-62
2022/09/16 11:29:23;;;;;;;9.82;1.65;;;16.80;99.90;;;;;;5092369;28;20063;-62
2022/09/16 11:31:57;;;;;;;11.80;1.58;;;17.00;99.90;;;;;;5092105;28;20032;-62
2022/09/16 11:34:54;;;;;;;11.30;1.55;;;16.70;99.90;;;;;;5093247;28;20043;-62
2022/09/16 11:37:35;;;;;;;13.07;2.08;;;16.40;99.90;;;;;;5090205;28;20047;-53
2022/09/16 11:40:55;;;;;;;7.78;1.80;;;16.40;99.90;;;;;;5090534;28;20077;-56
2022/09/16 11:43:45;;;;;;;22.77;3.15;;;16.70;99.90;;;;;;5047368;28;20044;-54
2022/09/16 11:46:26;;;;;;;17.75;3.17;;;16.90;99.90;;;;;;5093606;28;20511;-51
2022/09/16 11:49:41;;;;;;;12.90;2.00;;;17.10;99.90;;;;;;5096354;28;20104;-51
2022/09/16 11:52:27;;;;;;;11.38;2.20;;;17.10;99.90;;;;;;5076683;27;20047;-52
2022/09/16 11:55:02;;;;;;;13.90;2.10;;;16.80;99.90;;;;;;5088715;27;20132;-53
2022/09/16 11:57:36;;;;;;;10.63;1.63;;;17.00;99.90;;;;;;5096704;27;20801;-51
2022/09/16 12:00:02;;;;;;;12.20;2.10;;;16.80;99.90;;;;;;5095498;27;20048;-52
2022/09/16 12:02:31;;;;;;;13.80;1.70;;;17.20;99.90;;;;;;5095903;27;20127;-50
2022/09/16 12:05:15;;;;;;;5.68;1.60;;;17.00;99.90;;;;;;5097366;27;20044;-51
2022/09/16 12:07:50;;;;;;;13.02;1.92;;;17.30;99.90;;;;;;5095504;27;20039;-54
2022/09/16 12:10:23;;;;;;;16.42;2.30;;;17.40;99.90;;;;;;5096714;28;20119;-54
2022/09/16 12:12:55;;;;;;;15.48;2.15;;;17.50;99.90;;;;;;5096066;27;20638;-52
2022/09/16 12:15:34;;;;;;;14.48;3.15;;;17.30;99.90;;;;;;5096425;27;20032;-53
2022/09/16 12:18:23;;;;;;;12.32;2.40;;;17.20;99.90;;;;;;5096926;27;20059;-53
2022/09/16 12:20:54;;;;;;;18.05;2.50;;;16.90;99.90;;;;;;5089878;27;20054;-52
2022/09/16 12:23:25;;;;;;;14.27;2.50;;;16.70;99.90;;;;;;5095883;27;20442;-50
2022/09/16 12:26:11;;;;;;;15.93;2.15;;;16.50;99.90;;;;;;5094042;27;20135;-53
2022/09/16 12:28:55;;;;;;;9.52;1.95;;;16.60;99.90;;;;;;5096795;27;20065;-52
2022/09/16 12:31:41;;;;;;;14.77;2.25;;;16.80;99.90;;;;;;5095245;27;20088;-51
2022/09/16 12:34:17;;;;;;;15.93;2.33;;;16.70;99.90;;;;;;5095918;28;20108;-48
2022/09/16 12:36:47;;;;;;;15.55;3.03;;;16.80;99.90;;;;;;5095660;27;20044;-51
2022/09/16 12:39:13;;;;;;;12.95;3.10;;;16.70;99.90;;;;;;5095917;27;20982;-51
2022/09/16 12:41:38;;;;;;;11.13;2.08;;;16.80;99.90;;;;;;5097795;27;20058;-51
2022/09/16 12:44:32;;;;;;;16.80;2.75;;;17.10;99.90;;;;;;5095482;27;20075;-52
2022/09/16 12:47:24;;;;;;;14.00;2.35;;;16.80;99.90;;;;;;5095927;27;20047;-54
2022/09/16 12:49:53;;;;;;;;;;;16.70;99.90;;;;;;5095602;27;20048;-51
2022/09/16 12:52:42;;;;;;;11.23;1.88;;;16.70;99.90;;;;;;5094354;27;19996;-51
2022/09/16 12:55:27;;;;;;;13.82;1.88;;;16.80;99.90;;;;;;5093535;27;20056;-49
2022/09/16 12:58:25;;;;;;;13.00;2.08;;;16.80;99.90;;;;;;5095000;27;20529;-48
2022/09/16 13:01:18;;;;;;;10.55;1.70;;;16.80;99.90;;;;;;5094487;27;20050;-51
2022/09/16 13:03:58;;;;;;;9.80;1.65;;;16.70;99.90;;;;;;5094149;27;20040;-51
2022/09/16 13:06:28;;;;;;;11.18;1.27;;;16.10;99.90;;;;;;5092792;27;20625;-50
2022/09/16 13:08:55;;;;;;;8.25;1.50;;;16.30;99.90;;;;;;5092862;28;20134;-52
2022/09/16 13:11:25;;;;;;;7.05;1.27;;;16.10;99.90;;;;;;5093843;27;20373;-50
2022/09/16 13:13:56;;;;;;;8.85;1.45;;;16.00;99.90;;;;;;5093745;27;20116;-52
2022/09/16 13:16:35;;;;;;;8.27;1.33;;;16.10;99.90;;;;;;5094737;27;20056;-51